createdAt,value
2017-08-25T00:01:56.951Z,7.83
2017-08-25T00:04:25.206Z,7.67
2017-08-25T00:06:53.414Z,7.33
2017-08-25T00:09:21.548Z,8.33
2017-08-25T00:11:50.791Z,7.50
2017-08-25T00:14:19.138Z,7.37
2017-08-25T00:16:47.348Z,6.60
2017-08-25T00:19:15.517Z,7.67
2017-08-25T00:21:43.698Z,7.77
2017-08-25T00:24:12.037Z,8.87
2017-08-25T00:26:40.195Z,8.53
2017-08-25T00:29:08.358Z,7.97
2017-08-25T00:31:36.530Z,9.57
2017-08-25T00:34:04.862Z,7.97
2017-08-25T00:36:33.054Z,9.23
2017-08-25T00:39:01.316Z,7.20
2017-08-25T00:41:30.037Z,8.33
2017-08-25T00:43:58.230Z,7.17
2017-08-25T00:46:26.405Z,7.80
2017-08-25T00:48:54.627Z,7.17
2017-08-25T00:51:22.768Z,6.97
2017-08-25T00:53:50.998Z,6.47
2017-08-25T00:56:19.177Z,7.83
2017-08-25T00:58:47.354Z,8.47
2017-08-25T01:01:15.555Z,7.17
2017-08-25T01:03:43.817Z,7.30
2017-08-25T01:06:12.105Z,9.60
2017-08-25T01:08:40.358Z,8.73
2017-08-25T01:11:08.577Z,7.90
2017-08-25T01:13:36.782Z,9.33
2017-08-25T01:16:04.973Z,9.70
2017-08-25T01:18:33.185Z,7.50
2017-08-25T01:21:01.391Z,7.50
2017-08-25T01:23:29.602Z,8.33
2017-08-25T01:25:57.942Z,10.20
2017-08-25T01:28:26.117Z,8.47
2017-08-25T01:30:54.365Z,9.07
2017-08-25T01:33:22.518Z,8.17
2017-08-25T01:35:50.713Z,10.03
2017-08-25T01:38:18.914Z,8.17
2017-08-25T01:40:47.089Z,8.13
2017-08-25T01:43:15.265Z,12.20
2017-08-25T01:45:43.475Z,7.93
2017-08-25T01:48:12.207Z,8.87
2017-08-25T01:50:40.394Z,7.60
2017-08-25T01:53:08.589Z,9.83
2017-08-25T01:55:36.765Z,7.83
2017-08-25T01:58:07.991Z,8.50
2017-08-25T02:00:36.169Z,8.90
2017-08-25T02:03:04.333Z,11.53
2017-08-25T02:05:32.578Z,7.80
2017-08-25T02:08:00.839Z,9.30
2017-08-25T02:10:29.005Z,8.90
2017-08-25T02:12:57.153Z,11.30
2017-08-25T02:15:25.343Z,7.63
2017-08-25T02:17:53.503Z,7.53
2017-08-25T02:20:21.650Z,8.83
2017-08-25T02:22:50.021Z,11.67
2017-08-25T02:25:18.200Z,9.87
2017-08-25T02:27:46.352Z,7.80
2017-08-25T02:30:15.469Z,10.80
2017-08-25T02:32:43.642Z,9.03
2017-08-25T02:35:11.909Z,8.13
2017-08-25T02:37:40.093Z,7.67
2017-08-25T02:40:08.320Z,7.40
2017-08-25T02:42:36.611Z,8.50
2017-08-25T02:45:04.770Z,7.43
2017-08-25T02:47:32.951Z,7.90
2017-08-25T02:50:01.118Z,7.77
2017-08-25T02:52:29.387Z,9.03
2017-08-25T02:54:57.545Z,16.40
2017-08-25T02:57:28.346Z,10.13
2017-08-25T02:59:56.608Z,8.20
2017-08-25T03:02:24.792Z,10.20
2017-08-25T03:04:52.965Z,9.27
2017-08-25T03:07:21.164Z,8.93
2017-08-25T03:09:49.315Z,10.70
2017-08-25T03:12:17.486Z,8.90
2017-08-25T03:14:45.652Z,9.57
2017-08-25T03:17:13.827Z,11.97
2017-08-25T03:19:41.980Z,12.33
2017-08-25T03:22:10.104Z,11.43
2017-08-25T03:24:38.254Z,9.07
2017-08-25T03:27:06.446Z,9.90
2017-08-25T03:29:34.668Z,10.03
2017-08-25T03:32:02.897Z,11.10
2017-08-25T03:34:31.120Z,10.33
2017-08-25T03:36:59.275Z,10.30
2017-08-25T03:39:27.426Z,9.97
2017-08-25T03:41:55.613Z,12.30
2017-08-25T03:44:23.747Z,9.80
2017-08-25T03:46:51.917Z,8.13
2017-08-25T03:49:20.082Z,9.00
2017-08-25T03:51:48.452Z,8.33
2017-08-25T03:54:16.891Z,11.63
2017-08-25T03:56:45.062Z,8.63
2017-08-25T03:59:13.211Z,9.03
2017-08-25T04:01:41.424Z,8.80
2017-08-25T04:04:09.744Z,12.03
2017-08-25T04:06:38.062Z,15.47
2017-08-25T04:09:06.265Z,9.63
2017-08-25T04:11:34.714Z,10.20
2017-08-25T04:14:02.995Z,8.67
2017-08-25T04:16:32.556Z,8.97
2017-08-25T04:19:00.846Z,10.60
2017-08-25T04:21:29.870Z,11.00
2017-08-25T04:23:58.238Z,9.93
2017-08-25T04:26:26.922Z,10.00
2017-08-25T04:28:55.196Z,10.70
2017-08-25T04:31:23.437Z,9.60
2017-08-25T04:33:51.733Z,12.07
2017-08-25T04:36:19.984Z,11.43
2017-08-25T04:38:48.182Z,10.50
2017-08-25T04:41:16.345Z,13.10
2017-08-25T04:43:44.567Z,11.17
2017-08-25T04:46:12.762Z,11.90
2017-08-25T04:48:41.189Z,12.57
2017-08-25T04:51:09.426Z,12.50
2017-08-25T04:53:37.671Z,11.83
2017-08-25T04:56:05.876Z,13.10
2017-08-25T04:58:34.111Z,13.13
2017-08-25T05:01:02.441Z,19.40
2017-08-25T05:03:30.791Z,21.70
2017-08-25T05:05:58.999Z,14.17
2017-08-25T05:08:27.286Z,14.00
2017-08-25T05:10:55.445Z,13.60
2017-08-25T05:13:23.670Z,14.67
2017-08-25T05:15:51.961Z,16.30
2017-08-25T05:18:21.050Z,16.53
2017-08-25T05:20:49.212Z,13.53
2017-08-25T05:23:17.415Z,13.10
2017-08-25T05:25:45.589Z,13.90
2017-08-25T05:28:13.806Z,16.40
2017-08-25T05:30:42.115Z,15.83
2017-08-25T05:33:10.304Z,15.63
2017-08-25T05:35:38.465Z,13.07
2017-08-25T05:38:06.666Z,14.47
2017-08-25T05:40:34.858Z,17.50
2017-08-25T05:43:03.119Z,18.73
2017-08-25T05:45:31.311Z,15.67
2017-08-25T05:48:00.679Z,33.97
2017-08-25T05:50:28.871Z,38.67
2017-08-25T05:52:57.071Z,15.10
2017-08-25T05:55:25.298Z,41.87
2017-08-25T05:57:53.615Z,15.57
2017-08-25T06:00:22.000Z,17.23
2017-08-25T06:02:50.149Z,12.67
2017-08-25T06:05:18.373Z,14.83
2017-08-25T06:07:46.557Z,20.77
2017-08-25T06:10:15.032Z,12.90
2017-08-25T06:12:43.322Z,17.63
2017-08-25T06:18:07.230Z,22.97
2017-08-25T06:20:36.444Z,14.57
2017-08-25T06:23:04.731Z,17.80
2017-08-25T06:25:34.132Z,19.77
2017-08-25T06:28:02.443Z,12.60
2017-08-25T06:30:30.690Z,12.47
2017-08-25T06:32:59.135Z,13.07
2017-08-25T06:35:27.358Z,14.03
2017-08-25T06:37:56.493Z,15.03
2017-08-25T06:40:24.695Z,15.30
2017-08-25T06:42:53.003Z,14.10
2017-08-25T06:45:21.218Z,13.00
2017-08-25T06:47:49.464Z,18.23
2017-08-25T06:50:17.812Z,18.33
2017-08-25T06:52:46.136Z,15.47
2017-08-25T06:55:15.065Z,13.10
2017-08-25T06:57:43.475Z,17.50
2017-08-25T07:00:11.824Z,16.23
2017-08-25T07:02:40.240Z,18.03
2017-08-25T07:05:09.421Z,18.73
2017-08-25T07:07:37.724Z,16.60
2017-08-25T07:10:06.029Z,15.67
2017-08-25T07:12:34.422Z,16.60
2017-08-25T07:15:02.661Z,16.40
2017-08-25T07:17:31.079Z,16.30
2017-08-25T07:19:59.294Z,15.83
2017-08-25T07:22:28.715Z,14.40
2017-08-25T07:24:57.036Z,17.87
2017-08-25T07:27:35.388Z,16.43
2017-08-25T07:30:03.671Z,16.13
2017-08-25T07:32:31.909Z,12.80
2017-08-25T07:35:00.227Z,20.00
2017-08-25T07:37:30.472Z,14.40
2017-08-25T07:39:58.873Z,14.53
2017-08-25T07:42:31.524Z,14.23
2017-08-25T07:44:59.952Z,15.70
2017-08-25T07:47:28.316Z,12.67
2017-08-25T07:49:56.683Z,13.57
2017-08-25T07:52:24.966Z,11.60
2017-08-25T07:54:53.449Z,14.30
2017-08-25T07:57:22.778Z,14.13
2017-08-25T07:59:51.078Z,12.50
2017-08-25T08:02:19.359Z,11.53
2017-08-25T08:04:48.779Z,13.37
2017-08-25T08:07:18.012Z,12.87
2017-08-25T08:09:46.494Z,11.00
2017-08-25T08:12:14.826Z,15.27
2017-08-25T08:14:43.053Z,13.13
2017-08-25T08:17:11.406Z,11.27
2017-08-25T08:19:39.707Z,13.20
2017-08-25T08:22:08.007Z,15.83
2017-08-25T08:24:36.218Z,11.57
2017-08-25T08:27:04.598Z,12.70
2017-08-25T08:29:33.034Z,15.67
2017-08-25T08:32:02.171Z,10.80
2017-08-25T08:34:30.861Z,10.67
2017-08-25T08:36:59.652Z,12.63
2017-08-25T08:39:27.939Z,13.33
2017-08-25T08:42:06.173Z,12.63
2017-08-25T08:44:34.438Z,11.90
2017-08-25T08:47:02.965Z,10.23
2017-08-25T08:49:31.325Z,10.23
2017-08-25T08:51:59.492Z,10.30
2017-08-25T08:54:27.653Z,10.57
2017-08-25T08:56:55.782Z,12.30
2017-08-25T08:59:23.865Z,11.33
2017-08-25T09:01:51.965Z,9.40
2017-08-25T09:04:20.057Z,8.97
2017-08-25T09:06:48.254Z,11.03
2017-08-25T09:09:16.360Z,10.90
2017-08-25T09:11:44.465Z,9.90
2017-08-25T09:14:12.631Z,9.00
2017-08-25T09:16:40.776Z,10.97
2017-08-25T09:19:08.960Z,9.80
2017-08-25T09:21:37.040Z,9.20
2017-08-25T09:24:05.822Z,8.43
2017-08-25T09:26:34.716Z,8.87
2017-08-25T09:29:02.813Z,14.33
2017-08-25T09:31:30.947Z,8.67
2017-08-25T09:33:59.056Z,7.80
2017-08-25T09:36:27.209Z,9.67
2017-08-25T09:38:56.197Z,8.97
2017-08-25T09:41:24.411Z,7.87
2017-08-25T09:43:52.603Z,7.50
2017-08-25T09:46:20.724Z,8.90
2017-08-25T09:48:48.880Z,10.17
2017-08-25T09:51:16.986Z,8.37
2017-08-25T09:53:45.068Z,10.03
2017-08-25T09:56:13.161Z,7.63
2017-08-25T09:58:41.276Z,10.70
2017-08-25T10:01:09.365Z,7.80
2017-08-25T10:03:37.457Z,8.53
2017-08-25T10:06:05.540Z,8.93
2017-08-25T10:08:33.607Z,7.87
2017-08-25T10:11:01.744Z,8.90
2017-08-25T10:13:30.015Z,9.57
2017-08-25T10:15:58.109Z,8.93
2017-08-25T10:21:25.667Z,10.03
2017-08-25T10:23:53.773Z,12.50
2017-08-25T10:26:21.877Z,17.23
2017-08-25T10:28:49.959Z,8.77
2017-08-25T10:31:18.059Z,13.87
2017-08-25T10:33:47.948Z,7.00
2017-08-25T10:36:34.393Z,12.10
2017-08-25T10:39:20.165Z,8.17
2017-08-25T10:42:06.071Z,6.47
2017-08-25T10:44:47.993Z,9.50
2017-08-25T10:47:16.145Z,8.90
2017-08-25T10:49:44.275Z,14.57
2017-08-25T10:52:12.453Z,8.37
2017-08-25T10:54:40.627Z,6.67
2017-08-25T10:57:08.787Z,8.97
2017-08-25T10:59:39.173Z,8.77
2017-08-25T11:02:07.400Z,7.10
2017-08-25T11:04:35.599Z,7.27
2017-08-25T11:07:03.823Z,6.60
2017-08-25T11:09:31.939Z,7.73
2017-08-25T11:12:00.231Z,8.97
2017-08-25T11:14:28.496Z,14.53
2017-08-25T11:16:56.753Z,7.70
2017-08-25T11:19:24.839Z,9.00
2017-08-25T11:21:52.908Z,10.40
2017-08-25T11:24:21.014Z,8.03
2017-08-25T11:26:49.093Z,7.23
2017-08-25T11:29:17.201Z,11.87
2017-08-25T11:31:45.291Z,7.40
2017-08-25T11:34:13.914Z,8.37
2017-08-25T11:36:41.988Z,6.80
2017-08-25T11:39:10.099Z,7.00
2017-08-25T11:41:38.181Z,8.70
2017-08-25T11:44:06.277Z,6.60
2017-08-25T11:46:34.375Z,6.53
2017-08-25T11:49:02.465Z,12.03
2017-08-25T11:51:30.580Z,6.90
2017-08-25T11:53:58.661Z,8.83
2017-08-25T11:56:26.762Z,9.07
2017-08-25T11:58:54.838Z,9.87
2017-08-25T12:01:22.922Z,7.53
2017-08-25T12:03:51.018Z,7.03
2017-08-25T12:06:19.124Z,11.77
2017-08-25T12:08:47.429Z,8.10
2017-08-25T12:11:15.503Z,10.67
2017-08-25T12:13:43.572Z,7.17
2017-08-25T12:16:11.659Z,9.10
2017-08-25T12:18:40.200Z,8.60
2017-08-25T12:21:10.101Z,7.13
2017-08-25T12:23:39.134Z,7.43
2017-08-25T12:26:07.439Z,10.50
2017-08-25T12:28:37.141Z,7.30
2017-08-25T12:31:05.469Z,7.27
2017-08-25T12:33:33.783Z,7.93
2017-08-25T12:36:02.118Z,7.57
2017-08-25T12:38:30.454Z,7.77
2017-08-25T12:40:58.728Z,6.93
2017-08-25T12:43:30.129Z,7.20
2017-08-25T12:46:08.748Z,9.13
2017-08-25T12:48:36.861Z,9.57
2017-08-25T12:51:04.993Z,10.77
2017-08-25T12:53:33.124Z,7.23
2017-08-25T12:56:01.210Z,8.23
2017-08-25T12:58:29.303Z,7.40
2017-08-25T13:00:57.391Z,7.83
2017-08-25T13:03:25.483Z,7.20
2017-08-25T13:05:53.576Z,7.27
2017-08-25T13:08:21.680Z,6.93
2017-08-25T13:10:49.764Z,8.20
2017-08-25T13:13:17.850Z,9.43
2017-08-25T13:15:46.990Z,10.20
2017-08-25T13:18:15.074Z,7.50
2017-08-25T13:20:43.155Z,6.73
2017-08-25T13:23:11.265Z,7.20
2017-08-25T13:25:39.376Z,7.30
2017-08-25T13:28:07.471Z,8.07
2017-08-25T13:30:35.565Z,7.43
2017-08-25T13:33:03.648Z,7.20
2017-08-25T13:35:31.745Z,7.30
2017-08-25T13:37:59.840Z,7.97
2017-08-25T13:40:28.045Z,7.63
2017-08-25T13:42:56.130Z,6.20
2017-08-25T13:45:24.221Z,7.30
2017-08-25T13:47:52.327Z,8.03
2017-08-25T13:50:20.425Z,7.83
2017-08-25T13:52:48.544Z,7.37
2017-08-25T13:55:16.619Z,6.93
2017-08-25T13:57:44.731Z,13.20
2017-08-25T14:00:12.826Z,7.87
2017-08-25T14:02:40.944Z,8.43
2017-08-25T14:05:09.016Z,7.13
2017-08-25T14:07:37.103Z,7.77
2017-08-25T14:10:05.194Z,10.63
2017-08-25T14:12:33.304Z,8.63
2017-08-25T14:15:01.386Z,7.30
2017-08-25T14:17:29.512Z,7.00
2017-08-25T14:19:57.615Z,8.70
2017-08-25T14:22:25.717Z,7.30
2017-08-25T14:24:54.805Z,7.83
2017-08-25T14:27:22.889Z,8.83
2017-08-25T14:29:50.979Z,8.50
2017-08-25T14:32:19.073Z,6.93
2017-08-25T14:34:47.193Z,7.73
2017-08-25T14:37:15.256Z,7.50
2017-08-25T14:39:43.346Z,7.63
2017-08-25T14:42:11.421Z,8.30
2017-08-25T14:44:39.544Z,11.57
2017-08-25T14:47:07.637Z,10.37
2017-08-25T14:49:35.729Z,7.63
2017-08-25T14:52:03.807Z,7.20
2017-08-25T14:54:31.935Z,7.20
2017-08-25T14:57:00.052Z,7.30
2017-08-25T14:59:28.149Z,7.10
2017-08-25T15:01:56.260Z,6.97
2017-08-25T15:04:24.381Z,6.33
2017-08-25T15:06:52.489Z,9.63
2017-08-25T15:09:20.592Z,7.33
2017-08-25T15:11:48.745Z,7.10
2017-08-25T15:14:16.858Z,7.07
2017-08-25T15:16:44.990Z,9.40
2017-08-25T15:19:13.085Z,9.80
2017-08-25T15:21:41.192Z,7.77
2017-08-25T15:24:09.284Z,6.90
2017-08-25T15:26:37.446Z,6.83
2017-08-25T15:29:05.558Z,6.47
2017-08-25T15:31:33.653Z,9.03
2017-08-25T15:34:01.785Z,7.50
2017-08-25T15:36:29.886Z,8.70
2017-08-25T15:38:58.074Z,7.73
2017-08-25T15:41:26.177Z,9.23
2017-08-25T15:43:54.292Z,6.50
2017-08-25T15:46:22.411Z,8.70
2017-08-25T15:48:50.542Z,6.27
2017-08-25T15:51:18.647Z,7.73
2017-08-25T15:53:46.758Z,7.57
2017-08-25T15:56:14.881Z,10.67
2017-08-25T15:58:43.026Z,10.10
2017-08-25T16:01:11.142Z,7.70
2017-08-25T16:03:39.242Z,6.93
2017-08-25T16:06:07.328Z,7.13
2017-08-25T16:08:35.426Z,11.03
2017-08-25T16:11:03.517Z,7.10
2017-08-25T16:13:31.626Z,8.83
2017-08-25T16:15:59.769Z,7.10
2017-08-25T16:18:27.860Z,7.37
2017-08-25T16:20:55.953Z,6.83
2017-08-25T16:23:24.040Z,13.23
2017-08-25T16:25:52.149Z,7.67
2017-08-25T16:28:20.236Z,7.20
2017-08-25T16:30:48.351Z,6.20
2017-08-25T16:33:16.457Z,9.40
2017-08-25T16:35:44.578Z,8.47
2017-08-25T16:38:12.674Z,8.13
2017-08-25T16:40:40.807Z,8.23
2017-08-25T16:43:08.901Z,7.17
2017-08-25T16:45:37.025Z,7.93
2017-08-25T16:48:05.117Z,9.20
2017-08-25T16:50:33.192Z,6.50
2017-08-25T16:53:01.301Z,7.50
2017-08-25T16:55:29.406Z,7.97
2017-08-25T16:57:57.520Z,6.40
2017-08-25T17:00:25.616Z,10.40
2017-08-25T17:02:53.712Z,7.33
2017-08-25T17:05:21.825Z,8.47
2017-08-25T17:07:49.929Z,7.20
2017-08-25T17:10:18.030Z,7.00
2017-08-25T17:12:46.148Z,10.80
2017-08-25T17:15:14.224Z,7.10
2017-08-25T17:17:42.346Z,7.03
2017-08-25T17:20:10.461Z,10.53
2017-08-25T17:22:38.569Z,7.70
2017-08-25T17:25:06.662Z,7.77
2017-08-25T17:27:34.746Z,7.33
2017-08-25T17:30:02.842Z,8.47
2017-08-25T17:32:30.942Z,7.70
2017-08-25T17:34:59.057Z,9.83
2017-08-25T17:37:27.169Z,8.17
2017-08-25T17:39:55.265Z,9.10
2017-08-25T17:42:23.377Z,7.67
2017-08-25T17:44:51.472Z,7.90
2017-08-25T17:47:19.549Z,10.87
2017-08-25T17:49:47.662Z,11.53
2017-08-25T17:52:15.792Z,19.93
2017-08-25T17:54:43.872Z,8.77
2017-08-25T17:57:11.989Z,23.10
2017-08-25T17:59:43.090Z,42.33
2017-08-25T18:02:22.057Z,22.00
2017-08-25T18:05:02.224Z,13.57
2017-08-25T18:07:35.906Z,10.63
2017-08-25T18:10:09.547Z,13.23
2017-08-25T18:12:38.158Z,11.63
2017-08-25T18:15:06.913Z,13.67
2017-08-25T18:17:37.725Z,19.30
2017-08-25T18:20:06.140Z,10.40
2017-08-25T18:22:36.829Z,13.50
2017-08-25T18:25:21.877Z,14.97
2017-08-25T18:28:03.847Z,9.93
2017-08-25T18:30:32.616Z,9.47
2017-08-25T18:33:04.771Z,11.53
2017-08-25T18:35:32.960Z,19.70
2017-08-25T18:38:01.088Z,18.83
2017-08-25T18:40:30.227Z,10.53
2017-08-25T18:42:59.684Z,8.27
2017-08-25T18:45:29.448Z,9.80
2017-08-25T18:48:08.185Z,8.70
2017-08-25T18:50:37.247Z,10.40
2017-08-25T18:53:06.574Z,8.40
2017-08-25T18:55:45.899Z,8.20
2017-08-25T18:58:19.832Z,31.37
2017-08-25T19:03:57.107Z,15.83
2017-08-25T19:06:37.056Z,9.93
2017-08-25T19:09:06.783Z,8.50
2017-08-25T19:11:36.645Z,16.57
2017-08-25T19:14:05.642Z,22.23
2017-08-25T19:16:34.563Z,66.97
2017-08-25T19:19:02.773Z,117.57
2017-08-25T19:21:30.885Z,77.37
2017-08-25T19:23:59.025Z,14.20
2017-08-25T19:26:27.191Z,18.30
2017-08-25T19:28:55.309Z,13.43
2017-08-25T19:31:23.537Z,15.40
2017-08-25T19:33:51.644Z,12.70
2017-08-25T19:36:19.773Z,6.40
2017-08-25T19:38:48.001Z,4.30
2017-08-25T19:41:16.098Z,2.50
2017-08-25T19:43:44.177Z,9.47
2017-08-25T19:46:13.299Z,3.70
2017-08-25T19:48:41.378Z,3.77
2017-08-25T19:51:09.627Z,9.60
2017-08-25T19:53:37.727Z,2.97
2017-08-25T19:56:05.826Z,2.33
2017-08-25T19:58:33.899Z,3.03
2017-08-25T20:01:02.000Z,5.20
2017-08-25T20:03:30.081Z,4.90
2017-08-25T20:05:58.171Z,3.43
2017-08-25T20:08:26.263Z,5.30
2017-08-25T20:10:54.364Z,2.73
2017-08-25T20:13:22.463Z,8.20
2017-08-25T20:15:50.582Z,2.97
2017-08-25T20:18:18.685Z,5.90
2017-08-25T20:20:46.803Z,7.17
2017-08-25T20:23:14.900Z,3.70
2017-08-25T20:25:42.982Z,4.90
2017-08-25T20:28:11.173Z,3.20
2017-08-25T20:30:39.366Z,5.37
2017-08-25T20:33:07.474Z,3.10
2017-08-25T20:35:36.701Z,7.67
2017-08-25T20:38:04.793Z,7.90
2017-08-25T20:40:32.942Z,6.40
2017-08-25T20:43:12.012Z,3.60
2017-08-25T20:45:40.122Z,8.30
2017-08-25T20:48:08.242Z,4.80
2017-08-25T20:50:37.093Z,3.57
2017-08-25T20:53:05.248Z,6.83
2017-08-25T20:55:34.399Z,7.10
2017-08-25T20:58:02.506Z,8.30
2017-08-25T21:00:31.324Z,8.10
2017-08-25T21:02:59.499Z,5.03
2017-08-25T21:05:27.717Z,7.13
2017-08-25T21:07:55.817Z,4.03
2017-08-25T21:10:23.899Z,8.40
2017-08-25T21:12:52.024Z,4.40
2017-08-25T21:15:20.127Z,4.93
2017-08-25T21:17:48.221Z,6.40
2017-08-25T21:20:16.291Z,5.20
2017-08-25T21:22:44.381Z,5.63
2017-08-25T21:25:12.484Z,5.10
2017-08-25T21:27:40.592Z,7.97
2017-08-25T21:30:08.676Z,15.53
2017-08-25T21:32:36.866Z,9.17
2017-08-25T21:35:04.945Z,7.57
2017-08-25T21:37:33.045Z,10.67
2017-08-25T21:40:01.125Z,6.60
2017-08-25T21:42:29.228Z,6.60
2017-08-25T21:44:57.296Z,6.57
2017-08-25T21:47:25.520Z,4.73
2017-08-25T21:49:53.617Z,5.20
2017-08-25T21:52:21.789Z,4.53
2017-08-25T21:54:50.949Z,4.60
2017-08-25T21:57:20.472Z,8.43
2017-08-25T21:59:50.651Z,6.60
2017-08-25T22:02:19.255Z,5.97
2017-08-25T22:04:52.434Z,5.60
2017-08-25T22:07:22.896Z,4.30
2017-08-25T22:09:53.071Z,4.60
2017-08-25T22:12:23.592Z,6.47
2017-08-25T22:15:15.076Z,4.17
2017-08-25T22:17:45.332Z,4.00
2017-08-25T22:20:14.298Z,5.53
2017-08-25T22:22:42.404Z,4.17
2017-08-25T22:25:10.578Z,8.13
2017-08-25T22:27:38.700Z,4.03
2017-08-25T22:30:06.841Z,5.13
2017-08-25T22:32:34.994Z,3.93
2017-08-25T22:35:03.091Z,4.83
2017-08-25T22:37:31.498Z,4.87
2017-08-25T22:39:59.701Z,5.80
2017-08-25T22:42:27.870Z,3.50
2017-08-25T22:44:56.049Z,5.30
2017-08-25T22:49:57.683Z,6.20
2017-08-25T22:52:26.623Z,6.10
2017-08-25T22:54:54.747Z,10.70
2017-08-25T22:57:24.094Z,6.80
2017-08-25T22:59:58.402Z,9.53
2017-08-25T23:02:39.492Z,7.63
2017-08-25T23:05:13.164Z,4.80
2017-08-25T23:08:11.047Z,4.83
2017-08-25T23:10:39.257Z,4.37
2017-08-25T23:13:08.452Z,7.17
2017-08-25T23:16:06.391Z,4.40
2017-08-25T23:18:34.549Z,7.93
2017-08-25T23:21:02.633Z,4.63
2017-08-25T23:23:30.972Z,9.20
2017-08-25T23:25:59.871Z,5.10
2017-08-25T23:28:28.028Z,9.03
2017-08-25T23:30:56.134Z,5.70
2017-08-25T23:33:24.232Z,10.23
2017-08-25T23:35:52.312Z,5.90
